FYWH/WDH METAR and TAF weather

Enter ICAO airport designator
Station Type Date Time Source
FYWH METAR 2020/07/14 16:00 UTC NOAA

FYWH 141600Z 15010KT CAVOK 15/M12 Q1028 NOSIG


Station Type Date Time Source
FYWH Decoded METAR 2020/07/14 16:00 UTC NOAA

J. G. Strijdom, Namibia (FYWH) 22-29S 017-28E 1700M
Jul 14, 2020 - 12:00 PM EDT / 2020.07.14 1600 UTC
Wind: from the SSE (150 degrees) at 12 MPH (10 KT):0
Visibility: greater than 7 mile(s):0
Temperature: 59 F (15 C)
Dew Point: 10 F (-12 C)
Relative Humidity: 14%
Pressure (altimeter): 30.36 in. Hg (1028 hPa)
ob: FYWH 141600Z 15010KT CAVOK 15/M12 Q1028 NOSIG
cycle: 16

Station Type Date Time Source
FYWH TAF 2020/07/14 18:59 UTC NOAA

TAF FYWH 141600Z 1418/1518 15010KT CAVOK
BECMG 1421/1423 25004KT
BECMG 1501/1503 10004KT

Example: see airport list